sensor_id;sensor_type;location;lat;lon;timestamp;temperature;humidity
5009;DHT22;2523;51.058;6.922;2022-08-21T00:00:42;18.40;99.90
5009;DHT22;2523;51.058;6.922;2022-08-21T00:03:09;18.30;99.90
5009;DHT22;2523;51.058;6.922;2022-08-21T00:05:43;18.30;99.90
5009;DHT22;2523;51.058;6.922;2022-08-21T00:08:09;18.40;99.90
5009;DHT22;2523;51.058;6.922;2022-08-21T00:10:35;18.40;99.90
5009;DHT22;2523;51.058;6.922;2022-08-21T00:13:03;18.40;99.90
5009;DHT22;2523;51.058;6.922;2022-08-21T00:15:30;18.40;99.90
5009;DHT22;2523;51.058;6.922;2022-08-21T00:17:57;18.40;99.90
5009;DHT22;2523;51.058;6.922;2022-08-21T00:20:23;18.40;99.90
5009;DHT22;2523;51.058;6.922;2022-08-21T00:22:49;18.40;99.90
5009;DHT22;2523;51.058;6.922;2022-08-21T00:25:16;18.30;99.90
5009;DHT22;2523;51.058;6.922;2022-08-21T00:27:42;18.30;99.90
5009;DHT22;2523;51.058;6.922;2022-08-21T00:30:10;18.30;99.90
5009;DHT22;2523;51.058;6.922;2022-08-21T00:32:38;18.30;99.90
5009;DHT22;2523;51.058;6.922;2022-08-21T00:35:10;18.20;99.90
5009;DHT22;2523;51.058;6.922;2022-08-21T00:37:38;18.10;99.90
5009;DHT22;2523;51.058;6.922;2022-08-21T00:40:06;18.10;99.90
5009;DHT22;2523;51.058;6.922;2022-08-21T00:42:32;18.10;99.90
5009;DHT22;2523;51.058;6.922;2022-08-21T00:44:57;18.00;99.90
5009;DHT22;2523;51.058;6.922;2022-08-21T00:47:23;18.00;99.90
5009;DHT22;2523;51.058;6.922;2022-08-21T00:49:49;18.00;99.90
5009;DHT22;2523;51.058;6.922;2022-08-21T00:52:19;17.90;99.90
5009;DHT22;2523;51.058;6.922;2022-08-21T00:54:47;17.90;99.90
5009;DHT22;2523;51.058;6.922;2022-08-21T00:57:17;17.90;99.90
5009;DHT22;2523;51.058;6.922;2022-08-21T00:59:47;17.80;99.90
5009;DHT22;2523;51.058;6.922;2022-08-21T01:02:15;17.80;99.90
5009;DHT22;2523;51.058;6.922;2022-08-21T01:04:41;17.80;99.90
5009;DHT22;2523;51.058;6.922;2022-08-21T01:07:07;17.70;99.90
5009;DHT22;2523;51.058;6.922;2022-08-21T01:09:33;17.70;99.90
5009;DHT22;2523;51.058;6.922;2022-08-21T01:11:59;17.70;99.90
5009;DHT22;2523;51.058;6.922;2022-08-21T01:14:25;17.60;99.90
5009;DHT22;2523;51.058;6.922;2022-08-21T01:16:52;17.60;99.90
5009;DHT22;2523;51.058;6.922;2022-08-21T01:19:20;17.60;99.90
5009;DHT22;2523;51.058;6.922;2022-08-21T01:21:46;17.60;99.90
5009;DHT22;2523;51.058;6.922;2022-08-21T01:24:12;17.60;99.90
5009;DHT22;2523;51.058;6.922;2022-08-21T01:26:39;17.60;99.90
5009;DHT22;2523;51.058;6.922;2022-08-21T01:31:42;17.60;99.90
5009;DHT22;2523;51.058;6.922;2022-08-21T01:34:09;17.60;99.90
5009;DHT22;2523;51.058;6.922;2022-08-21T01:36:35;17.60;99.90
5009;DHT22;2523;51.058;6.922;2022-08-21T01:39:01;17.60;99.90
5009;DHT22;2523;51.058;6.922;2022-08-21T01:41:27;17.60;99.90
5009;DHT22;2523;51.058;6.922;2022-08-21T01:43:53;17.60;99.90
5009;DHT22;2523;51.058;6.922;2022-08-21T01:46:18;17.60;99.90
5009;DHT22;2523;51.058;6.922;2022-08-21T01:48:44;17.60;99.90
5009;DHT22;2523;51.058;6.922;2022-08-21T01:51:11;17.60;99.90
5009;DHT22;2523;51.058;6.922;2022-08-21T01:53:37;17.60;99.90
5009;DHT22;2523;51.058;6.922;2022-08-21T01:56:06;17.50;99.90
5009;DHT22;2523;51.058;6.922;2022-08-21T01:58:32;17.50;99.90
5009;DHT22;2523;51.058;6.922;2022-08-21T02:00:59;17.40;99.90
5009;DHT22;2523;51.058;6.922;2022-08-21T02:03:24;17.30;99.90
5009;DHT22;2523;51.058;6.922;2022-08-21T02:05:50;17.20;99.90
5009;DHT22;2523;51.058;6.922;2022-08-21T02:08:16;17.20;99.90
5009;DHT22;2523;51.058;6.922;2022-08-21T02:10:41;17.20;99.90
5009;DHT22;2523;51.058;6.922;2022-08-21T02:13:07;17.20;99.90
5009;DHT22;2523;51.058;6.922;2022-08-21T02:15:34;17.20;99.90
5009;DHT22;2523;51.058;6.922;2022-08-21T02:18:02;17.20;99.90
5009;DHT22;2523;51.058;6.922;2022-08-21T02:20:35;17.10;99.90
5009;DHT22;2523;51.058;6.922;2022-08-21T02:23:01;17.10;99.90
5009;DHT22;2523;51.058;6.922;2022-08-21T02:25:28;17.20;99.90
5009;DHT22;2523;51.058;6.922;2022-08-21T02:27:54;17.20;99.90
5009;DHT22;2523;51.058;6.922;2022-08-21T02:30:32;17.20;99.90
5009;DHT22;2523;51.058;6.922;2022-08-21T02:32:58;17.30;99.90
5009;DHT22;2523;51.058;6.922;2022-08-21T02:35:25;17.30;99.90
5009;DHT22;2523;51.058;6.922;2022-08-21T02:37:52;17.30;99.90
5009;DHT22;2523;51.058;6.922;2022-08-21T02:40:21;17.20;99.90
5009;DHT22;2523;51.058;6.922;2022-08-21T02:42:47;17.10;99.90
5009;DHT22;2523;51.058;6.922;2022-08-21T02:45:14;17.10;99.90
5009;DHT22;2523;51.058;6.922;2022-08-21T02:47:54;17.00;99.90
5009;DHT22;2523;51.058;6.922;2022-08-21T02:50:32;17.00;99.90
5009;DHT22;2523;51.058;6.922;2022-08-21T02:52:58;17.00;99.90
5009;DHT22;2523;51.058;6.922;2022-08-21T02:55:26;16.90;99.90
5009;DHT22;2523;51.058;6.922;2022-08-21T02:57:52;16.80;99.90
5009;DHT22;2523;51.058;6.922;2022-08-21T03:00:19;16.70;99.90
5009;DHT22;2523;51.058;6.922;2022-08-21T03:02:46;16.70;99.90
5009;DHT22;2523;51.058;6.922;2022-08-21T03:05:13;16.70;99.90
5009;DHT22;2523;51.058;6.922;2022-08-21T03:07:40;16.80;99.90
5009;DHT22;2523;51.058;6.922;2022-08-21T03:10:06;16.70;99.90
5009;DHT22;2523;51.058;6.922;2022-08-21T03:12:32;16.60;99.90
5009;DHT22;2523;51.058;6.922;2022-08-21T03:15:01;16.70;99.90
5009;DHT22;2523;51.058;6.922;2022-08-21T03:17:27;16.60;99.90
5009;DHT22;2523;51.058;6.922;2022-08-21T03:19:52;16.60;99.90
5009;DHT22;2523;51.058;6.922;2022-08-21T03:22:18;16.60;99.90
5009;DHT22;2523;51.058;6.922;2022-08-21T03:24:43;16.50;99.90
5009;DHT22;2523;51.058;6.922;2022-08-21T03:27:10;16.50;99.90
5009;DHT22;2523;51.058;6.922;2022-08-21T03:29:37;16.50;99.90
5009;DHT22;2523;51.058;6.922;2022-08-21T03:32:03;16.50;99.90
5009;DHT22;2523;51.058;6.922;2022-08-21T03:34:29;16.50;99.90
5009;DHT22;2523;51.058;6.922;2022-08-21T03:36:55;16.50;99.90
5009;DHT22;2523;51.058;6.922;2022-08-21T03:39:20;16.60;99.90
5009;DHT22;2523;51.058;6.922;2022-08-21T03:41:46;16.50;99.90
5009;DHT22;2523;51.058;6.922;2022-08-21T03:44:12;16.60;99.90
5009;DHT22;2523;51.058;6.922;2022-08-21T03:46:38;16.60;99.90
5009;DHT22;2523;51.058;6.922;2022-08-21T03:49:05;16.50;99.90
5009;DHT22;2523;51.058;6.922;2022-08-21T03:51:31;16.60;99.90
5009;DHT22;2523;51.058;6.922;2022-08-21T03:53:58;16.50;99.90
5009;DHT22;2523;51.058;6.922;2022-08-21T03:56:23;16.50;99.90
5009;DHT22;2523;51.058;6.922;2022-08-21T03:58:49;16.50;99.90
5009;DHT22;2523;51.058;6.922;2022-08-21T04:01:14;16.40;99.90
5009;DHT22;2523;51.058;6.922;2022-08-21T04:03:40;16.40;99.90
5009;DHT22;2523;51.058;6.922;2022-08-21T04:06:06;16.40;99.90
5009;DHT22;2523;51.058;6.922;2022-08-21T04:08:33;16.40;99.90
5009;DHT22;2523;51.058;6.922;2022-08-21T04:10:59;16.30;99.90
5009;DHT22;2523;51.058;6.922;2022-08-21T04:13:26;16.40;99.90
5009;DHT22;2523;51.058;6.922;2022-08-21T04:15:53;16.40;99.90
5009;DHT22;2523;51.058;6.922;2022-08-21T04:18:19;16.30;99.90
5009;DHT22;2523;51.058;6.922;2022-08-21T04:20:47;16.30;99.90
5009;DHT22;2523;51.058;6.922;2022-08-21T04:23:13;16.30;99.90
5009;DHT22;2523;51.058;6.922;2022-08-21T04:25:38;16.30;99.90
5009;DHT22;2523;51.058;6.922;2022-08-21T04:28:04;16.30;99.90
5009;DHT22;2523;51.058;6.922;2022-08-21T04:30:30;16.30;99.90
5009;DHT22;2523;51.058;6.922;2022-08-21T04:32:56;16.30;99.90
5009;DHT22;2523;51.058;6.922;2022-08-21T04:35:25;16.30;99.90
5009;DHT22;2523;51.058;6.922;2022-08-21T04:37:51;16.30;99.90
5009;DHT22;2523;51.058;6.922;2022-08-21T04:40:19;16.30;99.90
5009;DHT22;2523;51.058;6.922;2022-08-21T04:42:54;16.30;99.90
5009;DHT22;2523;51.058;6.922;2022-08-21T04:45:27;16.30;99.90
5009;DHT22;2523;51.058;6.922;2022-08-21T04:47:55;16.20;99.90
5009;DHT22;2523;51.058;6.922;2022-08-21T04:50:24;16.20;99.90
5009;DHT22;2523;51.058;6.922;2022-08-21T04:52:52;16.20;99.90
5009;DHT22;2523;51.058;6.922;2022-08-21T04:55:19;16.30;99.90
5009;DHT22;2523;51.058;6.922;2022-08-21T04:57:45;16.20;99.90
5009;DHT22;2523;51.058;6.922;2022-08-21T05:00:11;16.20;99.90
5009;DHT22;2523;51.058;6.922;2022-08-21T05:02:39;16.10;99.90
5009;DHT22;2523;51.058;6.922;2022-08-21T05:05:05;16.00;99.90
5009;DHT22;2523;51.058;6.922;2022-08-21T05:07:31;16.10;99.90
5009;DHT22;2523;51.058;6.922;2022-08-21T05:09:59;16.10;99.90
5009;DHT22;2523;51.058;6.922;2022-08-21T05:12:25;16.10;99.90
5009;DHT22;2523;51.058;6.922;2022-08-21T05:14:50;16.30;99.90
5009;DHT22;2523;51.058;6.922;2022-08-21T05:17:16;16.30;99.90
5009;DHT22;2523;51.058;6.922;2022-08-21T05:19:42;16.30;99.90
5009;DHT22;2523;51.058;6.922;2022-08-21T05:22:07;16.30;99.90
5009;DHT22;2523;51.058;6.922;2022-08-21T05:24:35;16.30;99.90
5009;DHT22;2523;51.058;6.922;2022-08-21T05:27:00;16.30;99.90
5009;DHT22;2523;51.058;6.922;2022-08-21T05:29:26;16.30;99.90
5009;DHT22;2523;51.058;6.922;2022-08-21T05:31:52;16.30;99.90
5009;DHT22;2523;51.058;6.922;2022-08-21T05:34:20;16.30;99.90
5009;DHT22;2523;51.058;6.922;2022-08-21T05:36:46;16.30;99.90
5009;DHT22;2523;51.058;6.922;2022-08-21T05:39:12;16.40;99.90
5009;DHT22;2523;51.058;6.922;2022-08-21T05:41:38;16.40;99.90
5009;DHT22;2523;51.058;6.922;2022-08-21T05:44:03;16.50;99.90
5009;DHT22;2523;51.058;6.922;2022-08-21T05:46:29;16.60;99.90
5009;DHT22;2523;51.058;6.922;2022-08-21T05:48:55;16.60;99.90
5009;DHT22;2523;51.058;6.922;2022-08-21T05:51:20;16.70;99.90
5009;DHT22;2523;51.058;6.922;2022-08-21T05:53:46;16.80;99.90
5009;DHT22;2523;51.058;6.922;2022-08-21T05:56:12;16.80;99.90
5009;DHT22;2523;51.058;6.922;2022-08-21T05:58:39;16.90;99.90
5009;DHT22;2523;51.058;6.922;2022-08-21T06:01:05;17.10;99.90
5009;DHT22;2523;51.058;6.922;2022-08-21T06:03:34;17.10;99.90
5009;DHT22;2523;51.058;6.922;2022-08-21T06:06:01;17.20;99.90
5009;DHT22;2523;51.058;6.922;2022-08-21T06:08:27;17.20;99.90
5009;DHT22;2523;51.058;6.922;2022-08-21T06:10:55;17.20;99.90
5009;DHT22;2523;51.058;6.922;2022-08-21T06:13:22;17.20;99.90
5009;DHT22;2523;51.058;6.922;2022-08-21T06:15:48;17.30;99.90
5009;DHT22;2523;51.058;6.922;2022-08-21T06:18:14;17.20;99.90
5009;DHT22;2523;51.058;6.922;2022-08-21T06:20:41;17.20;99.90
5009;DHT22;2523;51.058;6.922;2022-08-21T06:23:06;17.30;99.90
5009;DHT22;2523;51.058;6.922;2022-08-21T06:25:32;17.30;99.90
5009;DHT22;2523;51.058;6.922;2022-08-21T06:28:07;17.40;99.90
5009;DHT22;2523;51.058;6.922;2022-08-21T06:30:34;17.40;99.90
5009;DHT22;2523;51.058;6.922;2022-08-21T06:33:01;17.50;99.90
5009;DHT22;2523;51.058;6.922;2022-08-21T06:35:28;17.60;99.90
5009;DHT22;2523;51.058;6.922;2022-08-21T06:37:54;17.70;99.90
5009;DHT22;2523;51.058;6.922;2022-08-21T06:40:20;17.80;99.90
5009;DHT22;2523;51.058;6.922;2022-08-21T06:42:46;17.80;99.90
5009;DHT22;2523;51.058;6.922;2022-08-21T06:45:13;17.80;99.90
5009;DHT22;2523;51.058;6.922;2022-08-21T06:47:38;17.80;99.90
5009;DHT22;2523;51.058;6.922;2022-08-21T06:50:05;17.90;99.90
5009;DHT22;2523;51.058;6.922;2022-08-21T06:52:34;18.00;99.90
5009;DHT22;2523;51.058;6.922;2022-08-21T06:54:59;18.10;99.90
5009;DHT22;2523;51.058;6.922;2022-08-21T06:57:25;18.10;99.90
5009;DHT22;2523;51.058;6.922;2022-08-21T06:59:51;18.20;99.90
5009;DHT22;2523;51.058;6.922;2022-08-21T07:02:17;18.30;99.90
5009;DHT22;2523;51.058;6.922;2022-08-21T07:04:42;18.30;99.90
5009;DHT22;2523;51.058;6.922;2022-08-21T07:07:08;18.50;99.90
5009;DHT22;2523;51.058;6.922;2022-08-21T07:09:34;18.50;99.90
5009;DHT22;2523;51.058;6.922;2022-08-21T07:11:59;18.60;99.90
5009;DHT22;2523;51.058;6.922;2022-08-21T07:14:25;18.60;99.90
5009;DHT22;2523;51.058;6.922;2022-08-21T07:16:51;18.70;99.90
5009;DHT22;2523;51.058;6.922;2022-08-21T07:19:17;18.80;99.90
5009;DHT22;2523;51.058;6.922;2022-08-21T07:21:43;18.80;99.90
5009;DHT22;2523;51.058;6.922;2022-08-21T07:24:08;18.90;99.90
5009;DHT22;2523;51.058;6.922;2022-08-21T07:26:34;18.90;99.90
5009;DHT22;2523;51.058;6.922;2022-08-21T07:29:00;18.90;99.90
5009;DHT22;2523;51.058;6.922;2022-08-21T07:31:27;18.90;99.90
5009;DHT22;2523;51.058;6.922;2022-08-21T07:33:53;19.00;99.90
5009;DHT22;2523;51.058;6.922;2022-08-21T07:36:19;19.00;99.90
5009;DHT22;2523;51.058;6.922;2022-08-21T07:38:45;19.10;99.90
5009;DHT22;2523;51.058;6.922;2022-08-21T07:41:16;19.20;99.90
5009;DHT22;2523;51.058;6.922;2022-08-21T07:43:43;19.40;99.90
5009;DHT22;2523;51.058;6.922;2022-08-21T07:46:09;19.30;99.90
5009;DHT22;2523;51.058;6.922;2022-08-21T07:48:35;19.30;99.90
5009;DHT22;2523;51.058;6.922;2022-08-21T07:51:04;19.50;99.90
5009;DHT22;2523;51.058;6.922;2022-08-21T07:53:31;19.50;99.90
5009;DHT22;2523;51.058;6.922;2022-08-21T07:55:59;19.60;99.90
5009;DHT22;2523;51.058;6.922;2022-08-21T07:58:25;19.60;99.90
5009;DHT22;2523;51.058;6.922;2022-08-21T08:00:51;19.60;99.90
5009;DHT22;2523;51.058;6.922;2022-08-21T08:03:16;19.70;99.90
5009;DHT22;2523;51.058;6.922;2022-08-21T08:05:42;19.80;99.90
5009;DHT22;2523;51.058;6.922;2022-08-21T08:08:08;20.00;99.90
5009;DHT22;2523;51.058;6.922;2022-08-21T08:10:34;20.00;99.90
5009;DHT22;2523;51.058;6.922;2022-08-21T08:12:59;20.20;99.90
5009;DHT22;2523;51.058;6.922;2022-08-21T08:15:26;20.20;99.90
5009;DHT22;2523;51.058;6.922;2022-08-21T08:17:52;20.40;99.90
5009;DHT22;2523;51.058;6.922;2022-08-21T08:20:20;20.40;99.90
5009;DHT22;2523;51.058;6.922;2022-08-21T08:22:46;20.50;99.90
5009;DHT22;2523;51.058;6.922;2022-08-21T08:25:13;20.60;99.90
5009;DHT22;2523;51.058;6.922;2022-08-21T08:27:40;20.70;99.90
5009;DHT22;2523;51.058;6.922;2022-08-21T08:30:07;20.80;99.90
5009;DHT22;2523;51.058;6.922;2022-08-21T08:32:33;20.90;99.90
5009;DHT22;2523;51.058;6.922;2022-08-21T08:35:00;21.00;99.90
5009;DHT22;2523;51.058;6.922;2022-08-21T08:37:26;21.20;99.90
5009;DHT22;2523;51.058;6.922;2022-08-21T08:39:51;21.30;99.90
5009;DHT22;2523;51.058;6.922;2022-08-21T08:42:30;21.50;99.90
5009;DHT22;2523;51.058;6.922;2022-08-21T08:45:01;21.60;99.90
5009;DHT22;2523;51.058;6.922;2022-08-21T08:47:30;21.60;99.90
5009;DHT22;2523;51.058;6.922;2022-08-21T08:50:04;21.80;99.90
5009;DHT22;2523;51.058;6.922;2022-08-21T08:52:34;22.00;99.90
5009;DHT22;2523;51.058;6.922;2022-08-21T08:55:12;22.00;99.90
5009;DHT22;2523;51.058;6.922;2022-08-21T08:57:44;22.00;99.90
5009;DHT22;2523;51.058;6.922;2022-08-21T09:00:13;22.00;99.90
5009;DHT22;2523;51.058;6.922;2022-08-21T09:02:41;22.20;99.90
5009;DHT22;2523;51.058;6.922;2022-08-21T09:05:12;22.30;99.90
5009;DHT22;2523;51.058;6.922;2022-08-21T09:08:28;22.40;99.90
5009;DHT22;2523;51.058;6.922;2022-08-21T09:13:21;22.70;99.90
5009;DHT22;2523;51.058;6.922;2022-08-21T09:24:09;23.20;95.40
5009;DHT22;2523;51.058;6.922;2022-08-21T09:29:23;23.20;95.30
5009;DHT22;2523;51.058;6.922;2022-08-21T09:31:50;23.40;93.30
5009;DHT22;2523;51.058;6.922;2022-08-21T09:34:26;23.50;92.20
5009;DHT22;2523;51.058;6.922;2022-08-21T09:36:52;23.60;91.10
5009;DHT22;2523;51.058;6.922;2022-08-21T09:39:30;23.80;86.80
5009;DHT22;2523;51.058;6.922;2022-08-21T09:42:06;23.80;82.80
5009;DHT22;2523;51.058;6.922;2022-08-21T09:44:35;23.90;82.20
5009;DHT22;2523;51.058;6.922;2022-08-21T09:47:05;24.10;79.30
5009;DHT22;2523;51.058;6.922;2022-08-21T09:49:38;24.10;81.00
5009;DHT22;2523;51.058;6.922;2022-08-21T09:52:17;24.20;77.80
5009;DHT22;2523;51.058;6.922;2022-08-21T09:54:45;24.40;76.10
5009;DHT22;2523;51.058;6.922;2022-08-21T09:59:55;24.40;72.80
5009;DHT22;2523;51.058;6.922;2022-08-21T10:02:30;24.50;72.70
5009;DHT22;2523;51.058;6.922;2022-08-21T10:05:35;24.60;70.70
5009;DHT22;2523;51.058;6.922;2022-08-21T10:08:02;24.60;70.00
5009;DHT22;2523;51.058;6.922;2022-08-21T10:10:31;24.80;67.60
5009;DHT22;2523;51.058;6.922;2022-08-21T10:13:18;25.10;69.30
5009;DHT22;2523;51.058;6.922;2022-08-21T10:21:40;25.30;68.20
5009;DHT22;2523;51.058;6.922;2022-08-21T10:29:53;25.60;60.70
5009;DHT22;2523;51.058;6.922;2022-08-21T10:32:52;25.90;61.30
5009;DHT22;2523;51.058;6.922;2022-08-21T10:35:39;26.20;62.60
5009;DHT22;2523;51.058;6.922;2022-08-21T10:40:52;26.60;57.50
5009;DHT22;2523;51.058;6.922;2022-08-21T10:43:51;26.60;56.60
5009;DHT22;2523;51.058;6.922;2022-08-21T10:48:55;26.80;57.50
5009;DHT22;2523;51.058;6.922;2022-08-21T10:51:36;27.00;56.30
5009;DHT22;2523;51.058;6.922;2022-08-21T10:56:50;27.00;55.10
5009;DHT22;2523;51.058;6.922;2022-08-21T10:59:39;27.10;53.80
5009;DHT22;2523;51.058;6.922;2022-08-21T11:02:26;27.20;53.60
5009;DHT22;2523;51.058;6.922;2022-08-21T11:04:57;27.40;52.20
5009;DHT22;2523;51.058;6.922;2022-08-21T11:07:35;27.60;52.00
5009;DHT22;2523;51.058;6.922;2022-08-21T11:10:18;27.60;50.90
5009;DHT22;2523;51.058;6.922;2022-08-21T11:13:04;27.50;51.20
5009;DHT22;2523;51.058;6.922;2022-08-21T11:18:43;27.50;48.70
5009;DHT22;2523;51.058;6.922;2022-08-21T11:21:39;27.50;48.70
5009;DHT22;2523;51.058;6.922;2022-08-21T11:26:43;27.60;49.60
5009;DHT22;2523;51.058;6.922;2022-08-21T11:29:16;27.70;49.50
5009;DHT22;2523;51.058;6.922;2022-08-21T11:34:52;28.20;49.00
5009;DHT22;2523;51.058;6.922;2022-08-21T11:40:16;28.60;46.10
5009;DHT22;2523;51.058;6.922;2022-08-21T11:43:07;29.00;47.10
5009;DHT22;2523;51.058;6.922;2022-08-21T11:45:43;28.70;46.70
5009;DHT22;2523;51.058;6.922;2022-08-21T11:50:52;28.60;45.30
5009;DHT22;2523;51.058;6.922;2022-08-21T11:53:32;28.70;44.60
5009;DHT22;2523;51.058;6.922;2022-08-21T12:01:15;28.50;43.90
5009;DHT22;2523;51.058;6.922;2022-08-21T12:06:29;28.40;45.40
5009;DHT22;2523;51.058;6.922;2022-08-21T12:09:05;28.50;44.80
5009;DHT22;2523;51.058;6.922;2022-08-21T12:11:31;28.40;44.30
5009;DHT22;2523;51.058;6.922;2022-08-21T12:14:10;28.20;46.60
5009;DHT22;2523;51.058;6.922;2022-08-21T12:16:42;28.00;45.90
5009;DHT22;2523;51.058;6.922;2022-08-21T12:19:11;28.00;45.20
5009;DHT22;2523;51.058;6.922;2022-08-21T12:21:52;28.60;43.40
5009;DHT22;2523;51.058;6.922;2022-08-21T12:30:00;28.70;39.80
5009;DHT22;2523;51.058;6.922;2022-08-21T12:35:17;28.60;41.60
5009;DHT22;2523;51.058;6.922;2022-08-21T12:37:47;28.90;42.90
5009;DHT22;2523;51.058;6.922;2022-08-21T12:40:25;29.20;42.00
5009;DHT22;2523;51.058;6.922;2022-08-21T12:42:55;29.50;42.40
5009;DHT22;2523;51.058;6.922;2022-08-21T12:45:46;29.30;40.70
5009;DHT22;2523;51.058;6.922;2022-08-21T12:48:29;29.30;41.20
5009;DHT22;2523;51.058;6.922;2022-08-21T12:51:18;29.20;40.20
5009;DHT22;2523;51.058;6.922;2022-08-21T12:53:53;29.50;39.50
5009;DHT22;2523;51.058;6.922;2022-08-21T12:56:21;29.50;40.40
5009;DHT22;2523;51.058;6.922;2022-08-21T12:58:51;29.80;39.80
5009;DHT22;2523;51.058;6.922;2022-08-21T13:01:34;30.10;39.10
5009;DHT22;2523;51.058;6.922;2022-08-21T13:04:06;30.30;36.70
5009;DHT22;2523;51.058;6.922;2022-08-21T13:06:39;30.20;37.00
5009;DHT22;2523;51.058;6.922;2022-08-21T13:09:08;30.30;37.80
5009;DHT22;2523;51.058;6.922;2022-08-21T13:11:35;30.40;36.80
5009;DHT22;2523;51.058;6.922;2022-08-21T13:14:02;30.50;37.10
5009;DHT22;2523;51.058;6.922;2022-08-21T13:16:29;30.60;37.30
5009;DHT22;2523;51.058;6.922;2022-08-21T13:18:59;30.60;38.20
5009;DHT22;2523;51.058;6.922;2022-08-21T13:21:34;30.60;37.50
5009;DHT22;2523;51.058;6.922;2022-08-21T13:24:20;30.80;36.00
5009;DHT22;2523;51.058;6.922;2022-08-21T13:26:47;30.80;36.10
5009;DHT22;2523;51.058;6.922;2022-08-21T13:29:16;30.80;36.00
5009;DHT22;2523;51.058;6.922;2022-08-21T13:31:57;30.50;37.60
5009;DHT22;2523;51.058;6.922;2022-08-21T13:34:26;30.30;34.50
5009;DHT22;2523;51.058;6.922;2022-08-21T13:36:58;30.40;35.20
5009;DHT22;2523;51.058;6.922;2022-08-21T13:39:24;30.60;35.20
5009;DHT22;2523;51.058;6.922;2022-08-21T13:41:54;30.60;35.50
5009;DHT22;2523;51.058;6.922;2022-08-21T13:44:23;30.80;35.90
5009;DHT22;2523;51.058;6.922;2022-08-21T13:46:52;30.90;36.30
5009;DHT22;2523;51.058;6.922;2022-08-21T13:49:24;31.00;34.70
5009;DHT22;2523;51.058;6.922;2022-08-21T13:51:51;30.70;33.60
5009;DHT22;2523;51.058;6.922;2022-08-21T13:54:26;30.60;35.90
5009;DHT22;2523;51.058;6.922;2022-08-21T13:56:53;30.60;34.40
5009;DHT22;2523;51.058;6.922;2022-08-21T13:59:33;30.30;34.60
5009;DHT22;2523;51.058;6.922;2022-08-21T14:02:01;30.30;34.60
5009;DHT22;2523;51.058;6.922;2022-08-21T14:04:39;30.20;34.70
5009;DHT22;2523;51.058;6.922;2022-08-21T14:07:20;30.00;34.50
5009;DHT22;2523;51.058;6.922;2022-08-21T14:09:49;29.70;34.50
5009;DHT22;2523;51.058;6.922;2022-08-21T14:12:40;29.40;34.80
5009;DHT22;2523;51.058;6.922;2022-08-21T14:15:07;29.20;34.50
5009;DHT22;2523;51.058;6.922;2022-08-21T14:17:36;29.10;35.30
5009;DHT22;2523;51.058;6.922;2022-08-21T14:20:05;28.80;34.30
5009;DHT22;2523;51.058;6.922;2022-08-21T14:22:39;28.30;35.80
5009;DHT22;2523;51.058;6.922;2022-08-21T14:28:09;28.00;35.90
5009;DHT22;2523;51.058;6.922;2022-08-21T14:30:39;27.90;36.10
5009;DHT22;2523;51.058;6.922;2022-08-21T14:33:10;27.80;37.20
5009;DHT22;2523;51.058;6.922;2022-08-21T14:35:37;27.70;38.00
5009;DHT22;2523;51.058;6.922;2022-08-21T14:38:12;27.60;38.20
5009;DHT22;2523;51.058;6.922;2022-08-21T14:40:38;27.50;37.70
5009;DHT22;2523;51.058;6.922;2022-08-21T14:43:04;27.50;37.30
5009;DHT22;2523;51.058;6.922;2022-08-21T14:45:30;27.40;38.60
5009;DHT22;2523;51.058;6.922;2022-08-21T14:47:57;27.20;38.40
5009;DHT22;2523;51.058;6.922;2022-08-21T14:50:23;27.10;38.30
5009;DHT22;2523;51.058;6.922;2022-08-21T14:52:49;27.10;38.00
5009;DHT22;2523;51.058;6.922;2022-08-21T14:55:17;27.10;37.90
5009;DHT22;2523;51.058;6.922;2022-08-21T14:57:46;27.10;38.90
5009;DHT22;2523;51.058;6.922;2022-08-21T15:00:17;27.00;39.30
5009;DHT22;2523;51.058;6.922;2022-08-21T15:02:44;27.00;39.50
5009;DHT22;2523;51.058;6.922;2022-08-21T15:05:10;27.00;39.20
5009;DHT22;2523;51.058;6.922;2022-08-21T15:07:36;27.00;39.20
5009;DHT22;2523;51.058;6.922;2022-08-21T15:10:03;26.80;39.90
5009;DHT22;2523;51.058;6.922;2022-08-21T15:12:29;26.70;40.60
5009;DHT22;2523;51.058;6.922;2022-08-21T15:14:55;26.60;40.40
5009;DHT22;2523;51.058;6.922;2022-08-21T15:17:20;26.70;40.00
5009;DHT22;2523;51.058;6.922;2022-08-21T15:19:46;26.70;40.00
5009;DHT22;2523;51.058;6.922;2022-08-21T15:22:11;26.70;39.50
5009;DHT22;2523;51.058;6.922;2022-08-21T15:24:37;26.70;39.30
5009;DHT22;2523;51.058;6.922;2022-08-21T15:27:04;26.70;39.60
5009;DHT22;2523;51.058;6.922;2022-08-21T15:29:31;26.80;39.50
5009;DHT22;2523;51.058;6.922;2022-08-21T15:32:01;26.70;39.00
5009;DHT22;2523;51.058;6.922;2022-08-21T15:34:30;26.70;40.00
5009;DHT22;2523;51.058;6.922;2022-08-21T15:36:57;26.70;41.30
5009;DHT22;2523;51.058;6.922;2022-08-21T15:39:24;26.40;40.70
5009;DHT22;2523;51.058;6.922;2022-08-21T15:41:50;26.30;41.30
5009;DHT22;2523;51.058;6.922;2022-08-21T15:44:16;26.30;41.70
5009;DHT22;2523;51.058;6.922;2022-08-21T15:46:42;26.30;41.90
5009;DHT22;2523;51.058;6.922;2022-08-21T15:49:10;26.20;41.70
5009;DHT22;2523;51.058;6.922;2022-08-21T15:51:36;26.30;42.20
5009;DHT22;2523;51.058;6.922;2022-08-21T15:54:01;26.20;41.70
5009;DHT22;2523;51.058;6.922;2022-08-21T15:56:36;26.20;40.70
5009;DHT22;2523;51.058;6.922;2022-08-21T15:59:08;26.20;41.40
5009;DHT22;2523;51.058;6.922;2022-08-21T16:01:38;26.10;41.70
5009;DHT22;2523;51.058;6.922;2022-08-21T16:04:04;26.20;43.00
5009;DHT22;2523;51.058;6.922;2022-08-21T16:06:30;26.10;44.10
5009;DHT22;2523;51.058;6.922;2022-08-21T16:08:56;26.20;43.30
5009;DHT22;2523;51.058;6.922;2022-08-21T16:11:21;26.10;42.10
5009;DHT22;2523;51.058;6.922;2022-08-21T16:13:48;26.10;42.50
5009;DHT22;2523;51.058;6.922;2022-08-21T16:16:18;26.20;43.80
5009;DHT22;2523;51.058;6.922;2022-08-21T16:18:44;26.10;43.40
5009;DHT22;2523;51.058;6.922;2022-08-21T16:21:12;26.10;43.30
5009;DHT22;2523;51.058;6.922;2022-08-21T16:23:38;26.00;43.40
5009;DHT22;2523;51.058;6.922;2022-08-21T16:26:06;26.00;43.70
5009;DHT22;2523;51.058;6.922;2022-08-21T16:28:33;25.90;42.30
5009;DHT22;2523;51.058;6.922;2022-08-21T16:31:01;25.90;42.60
5009;DHT22;2523;51.058;6.922;2022-08-21T16:33:32;25.90;43.10
5009;DHT22;2523;51.058;6.922;2022-08-21T16:35:58;25.80;43.00
5009;DHT22;2523;51.058;6.922;2022-08-21T16:38:25;25.80;43.30
5009;DHT22;2523;51.058;6.922;2022-08-21T16:40:51;25.70;43.30
5009;DHT22;2523;51.058;6.922;2022-08-21T16:43:16;25.60;43.70
5009;DHT22;2523;51.058;6.922;2022-08-21T16:45:43;25.60;43.40
5009;DHT22;2523;51.058;6.922;2022-08-21T16:48:09;25.60;43.60
5009;DHT22;2523;51.058;6.922;2022-08-21T16:50:35;25.50;44.60
5009;DHT22;2523;51.058;6.922;2022-08-21T16:53:02;25.50;44.60
5009;DHT22;2523;51.058;6.922;2022-08-21T16:55:28;25.40;44.20
5009;DHT22;2523;51.058;6.922;2022-08-21T16:57:54;25.40;44.70
5009;DHT22;2523;51.058;6.922;2022-08-21T17:00:20;25.40;44.20
5009;DHT22;2523;51.058;6.922;2022-08-21T17:02:48;25.40;44.10
5009;DHT22;2523;51.058;6.922;2022-08-21T17:05:15;25.30;45.00
5009;DHT22;2523;51.058;6.922;2022-08-21T17:07:42;25.30;45.10
5009;DHT22;2523;51.058;6.922;2022-08-21T17:10:10;25.20;45.40
5009;DHT22;2523;51.058;6.922;2022-08-21T17:12:37;25.20;45.90
5009;DHT22;2523;51.058;6.922;2022-08-21T17:15:17;25.10;45.10
5009;DHT22;2523;51.058;6.922;2022-08-21T17:17:44;25.10;45.20
5009;DHT22;2523;51.058;6.922;2022-08-21T17:20:10;25.10;44.70
5009;DHT22;2523;51.058;6.922;2022-08-21T17:22:35;25.10;45.20
5009;DHT22;2523;51.058;6.922;2022-08-21T17:25:01;25.10;45.70